Terminal Aerodrome Forecast
Issued by NWS

Home | Current Version | Previous Version | Text Only | Print | Product List | Glossary On
Versions: 1 2 3 4 5 6 7 8 9 10 11 12 13 14 15 16 17 18 19 20 21 22 23 24 25 26 27 28 29 30 31
071
FTUS43 KDVN 271516 AAC
TAFCID
TAF AMD
KCID 271516Z 2715/2812 VRB03KT 2SM BR OVC003
     FM271600 11004KT 2SM BR SCT004 BKN008
     FM271700 12005KT P6SM SCT020
     FM272100 12009KT P6SM VCTS BKN050CB
     FM280100 36012KT 6SM BR BKN030
     FM280900 34006KT 4SM BR VCSH BKN020=

USA.gov is the U.S. government's official web portal to all federal, state and local government web resources and services.